Shirland, Illinois
Current Conditions -  °F | °C
As of 4:35 AM on Sunday 23 Nov 2014 (Local Time) from KJVL Reporting Station
Haze Haze  
Wind Chill: 50°   Ceiling: 400
Heat Index: 50°   Visibility: 2mi
Dew Point: 46°   Wind: 13mph
Humidity: 87%   Direction: 170°S
Pressure: 29.7"   Gusts: NA
Location:  42.44°N, 89.2°W
Report Text: KJVL 231035Z AUTO 17011KT 2SM BR OVC004 10/08 A2970 RMK AO2
Loading
Personal Weather Stations






























Interactive Weather Map New forecast layout! Learn more

10-Day Weather Forecast

Advertisements
Track Severe Weather on mobile